Time;durP1;ratioP1;P1;durP2;ratioP2;P2;SDS_P1;SDS_P2;PMS_P1;PMS_P2;Temp;Humidity;BMP_temperature;BMP_pressure;BME280_temperature;BME280_humidity;BME280_pressure;Samples;Min_cycle;Max_cycle;Signal;HPM_P1;HPM_P2
2022/12/10 00:00:22;;;;;;;11.37;4.33;;;;;;;8.20;nan;-24046.09;5032507;28;20187;-76
2022/12/10 00:02:47;;;;;;;10.40;5.57;;;;;;;7.88;nan;-24037.03;5030552;28;20710;-76
2022/12/10 00:05:13;;;;;;;6.63;3.67;;;;;;;7.85;nan;-24036.34;5032451;28;20176;-76
2022/12/10 00:07:38;;;;;;;10.13;3.60;;;;;;;7.03;nan;-24013.38;5033157;28;20277;-76
2022/12/10 00:10:04;;;;;;;13.83;6.10;;;;;;;7.99;nan;-24040.31;5032415;28;20274;-76
2022/12/10 00:12:29;;;;;;;11.87;4.60;;;;;;;7.80;nan;-24034.78;5032323;28;20253;-76
2022/12/10 00:14:54;;;;;;;12.93;4.77;;;;;;;7.91;nan;-24037.88;5032194;28;20198;-75
2022/12/10 00:17:20;;;;;;;14.07;5.37;;;;;;;7.87;nan;-24036.75;5032145;28;20202;-76
2022/12/10 00:19:45;;;;;;;13.77;6.00;;;;;;;7.82;nan;-24035.47;5032371;28;20176;-76
2022/12/10 00:22:11;;;;;;;7.70;4.80;;;;;;;7.83;nan;-24035.63;5031681;28;20552;-76
2022/12/10 00:24:36;;;;;;;9.63;4.70;;;;;;;7.88;nan;-24037.19;5030619;28;20171;-77
2022/12/10 00:27:01;;;;;;;14.57;6.30;;;;;;;7.81;nan;-24035.22;5030746;28;20272;-76
2022/12/10 00:29:27;;;;;;;7.37;5.03;;;;;;;7.82;nan;-24035.47;5032199;28;20608;-74
2022/12/10 00:31:53;;;;;;;17.87;4.80;;;;;;;7.94;nan;-24038.88;5032094;28;20171;-76
2022/12/10 00:34:18;;;;;;;12.17;5.40;;;;;;;7.84;nan;-24035.91;5031732;28;20247;-76
2022/12/10 00:36:46;;;;;;;9.53;5.03;;;;;;;8.00;nan;-24040.44;5030279;28;20253;-76
2022/12/10 00:39:13;;;;;;;12.77;6.67;;;;;;;8.00;nan;-24040.44;5032045;28;20302;-76
2022/12/10 00:41:39;;;;;;;17.70;6.20;;;;;;;8.03;nan;-24041.28;5034932;28;20641;-76
2022/12/10 00:44:05;;;;;;;15.40;5.63;;;;;;;7.95;nan;-24039.16;5032527;28;20184;-76
2022/12/10 00:46:31;;;;;;;18.40;6.93;;;;;;;7.92;nan;-24038.19;5031544;28;20199;-76
2022/12/10 00:48:58;;;;;;;17.53;6.13;;;;;;;7.96;nan;-24039.44;5031893;28;20168;-76
2022/12/10 00:51:24;;;;;;;24.30;6.50;;;;;;;7.73;nan;-24032.78;5031697;28;20643;-76
2022/12/10 00:53:52;;;;;;;14.13;6.37;;;;;;;7.69;nan;-24031.66;5035821;28;20168;-77
2022/12/10 00:56:25;;;;;;;18.57;6.27;;;;;;;7.91;nan;-24038.03;5055368;28;20179;-75
2022/12/10 00:58:51;;;;;;;13.93;5.33;;;;;;;7.74;nan;-24033.22;5043501;28;20164;-76
2022/12/10 01:01:20;;;;;;;13.33;5.60;;;;;;;8.00;nan;-24040.44;5031882;28;20170;-75
2022/12/10 01:03:48;;;;;;;15.40;6.90;;;;;;;7.51;nan;-24026.84;5031673;28;20223;-76
2022/12/10 01:06:17;;;;;;;21.90;7.13;;;;;;;7.72;nan;-24032.66;5030606;28;20249;-77
2022/12/10 01:08:44;;;;;;;18.13;7.17;;;;;;;7.76;nan;-24033.66;5032217;28;20703;-76
2022/12/10 01:11:24;;;;;;;23.73;6.97;;;;;;;7.91;nan;-24038.03;5032402;28;20179;-79
2022/12/10 01:13:52;;;;;;;15.93;6.60;;;;;;;7.80;nan;-24034.78;5031428;28;20191;-76
2022/12/10 01:16:20;;;;;;;21.60;6.90;;;;;;;7.96;nan;-24039.44;5032473;28;20183;-77
2022/12/10 01:18:46;;;;;;;17.13;7.27;;;;;;;7.83;nan;-24035.78;5032782;28;20262;-77
2022/12/10 01:21:15;;;;;;;14.17;6.33;;;;;;;7.91;nan;-24037.88;5031102;28;20237;-76
2022/12/10 01:23:42;;;;;;;12.37;5.73;;;;;;;8.00;nan;-24040.59;5031890;28;20168;-76
2022/12/10 01:26:11;;;;;;;10.33;5.23;;;;;;;7.55;nan;-24027.97;5030454;28;20242;-76
2022/12/10 01:28:38;;;;;;;15.27;7.13;;;;;;;7.65;nan;-24030.66;5031967;28;20229;-76
2022/12/10 01:31:10;;;;;;;22.30;7.57;;;;;;;7.82;nan;-24035.34;5031459;28;20182;-75
2022/12/10 01:33:36;;;;;;;12.67;5.90;;;;;;;8.12;nan;-24043.69;5031521;28;20171;-76
2022/12/10 01:36:07;;;;;;;19.43;6.47;;;;;;;7.87;nan;-24036.75;5030952;28;20250;-76
2022/12/10 01:38:33;;;;;;;13.77;5.17;;;;;;;8.15;nan;-24044.69;5031768;28;20183;-76
2022/12/10 01:41:00;;;;;;;30.20;8.07;;;;;;;8.16;nan;-24044.84;5032082;28;20191;-76
2022/12/10 01:43:26;;;;;;;22.80;6.50;;;;;;;8.01;nan;-24040.72;5035560;28;20176;-76
2022/12/10 01:45:52;;;;;;;21.47;7.53;;;;;;;8.42;nan;-24052.34;5034881;28;20171;-75
2022/12/10 01:48:19;;;;;;;14.53;6.87;;;;;;;7.82;nan;-24035.34;5035712;28;20614;-76
2022/12/10 01:50:45;;;;;;;16.07;6.77;;;;;;;7.71;nan;-24032.22;5035361;28;20171;-76
2022/12/10 01:53:13;;;;;;;19.67;8.07;;;;;;;7.96;nan;-24039.31;5035139;28;20174;-76
2022/12/10 01:55:41;;;;;;;16.47;7.60;;;;;;;6.80;nan;-24006.72;5034658;28;20615;-76
2022/12/10 01:58:07;;;;;;;25.97;7.70;;;;;;;7.92;nan;-24038.19;5037418;28;20179;-76
2022/12/10 02:00:36;;;;;;;13.90;7.07;;;;;;;7.86;nan;-24036.63;5053854;28;20179;-76
2022/12/10 02:03:13;;;;;;;17.37;7.07;;;;;;;7.80;nan;-24034.91;5054480;28;20217;-75
2022/12/10 02:06:00;;;;;;;16.43;6.80;;;;;;;7.56;nan;-24028.13;5054673;28;20167;-76
2022/12/10 02:08:37;;;;;;;20.03;6.87;;;;;;;7.91;nan;-24037.88;5054918;28;20163;-75
2022/12/10 02:11:19;;;;;;;12.27;5.50;;;;;;;7.92;nan;-24038.31;5052353;28;20194;-75
2022/12/10 02:14:00;;;;;;;10.73;5.77;;;;;;;7.89;nan;-24037.31;5035644;28;20171;-76
2022/12/10 02:16:31;;;;;;;17.27;7.27;;;;;;;7.84;nan;-24036.06;5035416;28;20187;-76
2022/12/10 02:19:09;;;;;;;13.53;6.03;;;;;;;7.95;nan;-24039.03;5036278;28;20247;-76
2022/12/10 02:21:38;;;;;;;16.27;6.57;;;;;;;7.70;nan;-24031.94;5035374;28;20229;-76
2022/12/10 02:24:10;;;;;;;13.00;6.57;;;;;;;7.98;nan;-24040.03;5035193;28;20254;-76
2022/12/10 02:26:48;;;;;;;14.60;6.47;;;;;;;7.76;nan;-24033.78;5034716;28;20739;-76
2022/12/10 02:29:19;;;;;;;11.33;5.70;;;;;;;7.98;nan;-24039.88;5035350;28;20700;-76
2022/12/10 02:31:51;;;;;;;16.80;6.17;;;;;;;8.05;nan;-24041.72;5034425;28;20539;-75
2022/12/10 02:34:19;;;;;;;21.43;6.73;;;;;;;7.68;nan;-24031.38;5034180;28;20168;-76
2022/12/10 02:36:47;;;;;;;17.27;5.87;;;;;;;7.80;nan;-24034.91;5032970;28;20207;-76
2022/12/10 02:39:19;;;;;;;16.43;5.97;;;;;;;7.85;nan;-24036.19;5033799;28;20187;-76
2022/12/10 02:41:52;;;;;;;10.30;5.37;;;;;;;7.87;nan;-24036.91;5032663;28;20251;-76
2022/12/10 02:44:20;;;;;;;14.27;7.67;;;;;;;7.95;nan;-24039.16;5033369;28;20207;-76
2022/12/10 02:46:49;;;;;;;12.20;5.80;;;;;;;7.71;nan;-24032.22;5035774;28;20231;-76
2022/12/10 02:49:16;;;;;;;11.57;5.53;;;;;;;8.06;nan;-24042.00;5032783;28;20557;-76
2022/12/10 02:51:41;;;;;;;13.20;7.43;;;;;;;7.89;nan;-24037.31;5032473;28;20171;-76
2022/12/10 02:54:32;;;;;;;15.57;5.67;;;;;;;7.95;nan;-24039.16;5033478;28;20184;-76
2022/12/10 02:57:04;;;;;;;16.60;4.93;;;;;;;7.55;nan;-24027.84;5031937;28;20183;-76
2022/12/10 02:59:47;;;;;;;13.10;6.00;;;;;;;7.89;nan;-24037.31;5033237;28;20167;-76
2022/12/10 03:02:19;;;;;;;14.03;6.03;;;;;;;7.75;nan;-24033.38;5032949;28;20578;-75
2022/12/10 03:04:53;;;;;;;19.13;5.97;;;;;;;7.99;nan;-24040.16;5031843;28;20186;-75
2022/12/10 03:07:30;;;;;;;12.83;6.17;;;;;;;7.84;nan;-24035.91;5033205;28;20279;-76
2022/12/10 03:10:02;;;;;;;10.77;5.70;;;;;;;7.82;nan;-24035.34;5032196;28;20530;-77
2022/12/10 03:12:37;;;;;;;13.00;6.60;;;;;;;7.74;nan;-24033.22;5032858;28;20254;-75
2022/12/10 03:15:08;;;;;;;18.23;6.53;;;;;;;7.91;nan;-24038.03;5030297;28;20175;-75
2022/12/10 03:17:36;;;;;;;16.50;7.03;;;;;;;7.81;nan;-24035.22;5032162;28;20179;-76
2022/12/10 03:20:03;;;;;;;14.07;5.97;;;;;;;7.80;nan;-24034.78;5033185;28;20198;-76
2022/12/10 03:22:30;;;;;;;9.90;4.57;;;;;;;7.69;nan;-24031.66;5031658;28;20659;-76
2022/12/10 03:24:57;;;;;;;16.53;7.07;;;;;;;7.89;nan;-24037.31;5032950;28;20167;-76
2022/12/10 03:27:23;;;;;;;11.77;4.93;;;;;;;7.91;nan;-24038.03;5031730;28;20692;-77
2022/12/10 03:29:52;;;;;;;11.27;5.90;;;;;;;7.99;nan;-24040.31;5033514;28;20686;-76
2022/12/10 03:32:21;;;;;;;12.77;6.10;;;;;;;8.12;nan;-24043.84;5033277;28;20183;-77
2022/12/10 03:34:50;;;;;;;10.80;5.77;;;;;;;7.57;nan;-24028.25;5032802;28;20172;-76
2022/12/10 03:37:16;;;;;;;12.53;6.30;;;;;;;7.87;nan;-24036.91;5032847;28;20178;-76
2022/12/10 03:39:42;;;;;;;10.17;4.90;;;;;;;7.75;nan;-24033.38;5031553;28;20179;-76
2022/12/10 03:42:08;;;;;;;16.63;5.90;;;;;;;7.62;nan;-24029.69;5032694;28;20182;-75
2022/12/10 03:44:37;;;;;;;18.87;6.17;;;;;;;7.84;nan;-24036.06;5032945;28;20172;-77
2022/12/10 03:47:05;;;;;;;14.67;5.70;;;;;;;7.75;nan;-24033.50;5032730;28;20226;-77
2022/12/10 03:49:30;;;;;;;19.30;7.73;;;;;;;7.90;nan;-24037.75;5031321;28;20187;-77
2022/12/10 03:51:56;;;;;;;22.60;6.60;;;;;;;7.75;nan;-24033.50;5032459;28;20179;-77
2022/12/10 03:54:22;;;;;;;11.60;6.20;;;;;;;7.82;nan;-24035.34;5031139;28;20171;-76
2022/12/10 03:56:47;;;;;;;15.70;6.23;;;;;;;7.72;nan;-24032.50;5031285;28;20175;-76
2022/12/10 03:59:13;;;;;;;11.20;6.13;;;;;;;7.86;nan;-24036.47;5030887;28;20560;-76
2022/12/10 04:01:38;;;;;;;15.50;5.83;;;;;;;7.61;nan;-24029.53;5031896;28;20185;-76
2022/12/10 04:04:05;;;;;;;14.60;6.70;;;;;;;7.75;nan;-24033.38;5032434;28;20221;-77
2022/12/10 04:06:30;;;;;;;12.70;4.77;;;;;;;7.78;nan;-24034.34;5032694;28;20205;-75
2022/12/10 04:08:56;;;;;;;12.50;5.70;;;;;;;7.74;nan;-24033.22;5033944;28;20175;-76
2022/12/10 04:11:21;;;;;;;10.73;5.60;;;;;;;7.78;nan;-24034.34;5036939;28;20187;-76
2022/12/10 04:16:32;;;;;;;10.60;5.77;;;;;;;7.86;nan;-24036.47;5032746;28;20241;-76
2022/12/10 04:19:01;;;;;;;13.33;5.80;;;;;;;7.85;nan;-24036.34;5031521;28;20681;-76
2022/12/10 04:26:59;;;;;;;13.93;5.57;;;;;;;7.83;nan;-24035.78;5032014;28;20225;-76
2022/12/10 04:29:27;;;;;;;10.73;5.23;;;;;;;7.54;nan;-24027.56;5030998;28;20742;-77
2022/12/10 04:31:53;;;;;;;8.37;4.97;;;;;;;7.52;nan;-24027.13;5031868;28;20179;-76
2022/12/10 04:34:19;;;;;;;9.47;5.40;;;;;;;7.48;nan;-24025.84;5032157;28;20225;-75
2022/12/10 04:36:45;;;;;;;18.40;4.83;;;;;;;7.63;nan;-24030.09;5030359;28;20179;-76
2022/12/10 04:39:11;;;;;;;13.20;4.87;;;;;;;7.90;nan;-24037.75;5032264;28;20180;-76
2022/12/10 04:41:39;;;;;;;11.53;5.17;;;;;;;7.57;nan;-24028.25;5037123;28;20175;-75
2022/12/10 04:44:04;;;;;;;16.23;4.90;;;;;;;7.79;nan;-24034.50;5055530;28;20178;-75
2022/12/10 04:46:30;;;;;;;11.90;4.63;;;;;;;7.17;nan;-24017.06;5042771;28;20698;-76
2022/12/10 04:48:55;;;;;;;10.30;4.80;;;;;;;7.92;nan;-24038.19;5032284;28;20172;-76
2022/12/10 04:51:21;;;;;;;17.77;5.83;;;;;;;7.61;nan;-24029.41;5032542;28;20187;-75
2022/12/10 04:53:46;;;;;;;16.07;5.23;;;;;;;7.89;nan;-24037.47;5031386;28;20187;-76
2022/12/10 04:56:11;;;;;;;12.10;4.93;;;;;;;7.66;nan;-24030.81;5031305;28;20180;-76
2022/12/10 04:58:37;;;;;;;14.20;5.23;;;;;;;7.69;nan;-24031.81;5031055;28;20200;-78
2022/12/10 05:01:04;;;;;;;18.80;5.67;;;;;;;7.94;nan;-24038.88;5032233;28;20175;-76
2022/12/10 05:03:30;;;;;;;12.17;4.70;;;;;;;7.93;nan;-24038.59;5031617;28;20281;-76
2022/12/10 05:05:56;;;;;;;9.80;4.90;;;;;;;7.76;nan;-24033.78;5030410;28;20623;-76
2022/12/10 05:08:21;;;;;;;13.00;5.73;;;;;;;7.61;nan;-24029.41;5030928;28;20274;-75
2022/12/10 05:10:47;;;;;;;10.63;4.53;;;;;;;7.55;nan;-24027.84;5030318;28;20602;-76
2022/12/10 05:13:12;;;;;;;15.33;5.37;;;;;;;7.79;nan;-24034.63;5030289;28;20205;-75
2022/12/10 05:15:38;;;;;;;9.90;5.03;;;;;;;7.37;nan;-24022.88;5033139;28;20659;-75
2022/12/10 05:18:03;;;;;;;9.17;4.13;;;;;;;7.69;nan;-24031.66;5035752;28;20172;-76
2022/12/10 05:20:29;;;;;;;13.27;4.70;;;;;;;7.54;nan;-24027.56;5035529;28;20253;-76
2022/12/10 05:25:52;;;;;;;7.83;5.13;;;;;;;7.82;nan;-24035.34;5035549;28;20369;-76
2022/12/10 05:28:19;;;;;;;11.93;5.03;;;;;;;7.67;nan;-24031.25;5034966;28;20744;-76
2022/12/10 05:30:45;;;;;;;11.50;4.40;;;;;;;7.64;nan;-24030.25;5033630;28;20176;-75
2022/12/10 05:33:10;;;;;;;7.43;4.20;;;;;;;7.84;nan;-24035.91;5036538;28;20258;-76
2022/12/10 05:35:35;;;;;;;15.83;5.17;;;;;;;7.40;nan;-24023.72;5035840;28;20179;-75
2022/12/10 05:38:01;;;;;;;19.47;5.57;;;;;;;7.68;nan;-24031.53;5034827;28;20183;-75
2022/12/10 05:40:26;;;;;;;8.33;4.47;;;;;;;7.76;nan;-24033.78;5035271;28;20233;-75
2022/12/10 05:42:52;;;;;;;8.90;4.60;;;;;;;7.69;nan;-24031.81;5035218;28;20297;-76
2022/12/10 05:45:17;;;;;;;12.77;5.77;;;;;;;7.31;nan;-24021.03;5033686;28;20183;-76
2022/12/10 05:47:42;;;;;;;13.53;5.20;;;;;;;7.52;nan;-24027.13;5033999;28;20210;-78
2022/12/10 05:50:08;;;;;;;9.83;4.57;;;;;;;7.63;nan;-24029.97;5034736;28;20202;-77
2022/12/10 05:52:33;;;;;;;10.67;4.43;;;;;;;7.26;nan;-24019.75;5034935;28;20175;-76
2022/12/10 05:54:59;;;;;;;13.63;5.23;;;;;;;7.89;nan;-24037.47;5033277;28;20266;-76
2022/12/10 05:57:24;;;;;;;11.40;4.60;;;;;;;7.86;nan;-24036.63;5035188;28;20190;-76
2022/12/10 05:59:50;;;;;;;15.33;6.60;;;;;;;7.81;nan;-24035.06;5033277;28;20658;-75
2022/12/10 06:02:16;;;;;;;10.33;4.53;;;;;;;7.97;nan;-24039.59;5034559;28;20250;-76
2022/12/10 06:04:41;;;;;;;8.20;4.37;;;;;;;8.11;nan;-24043.56;5033703;28;20618;-76
2022/12/10 06:07:06;;;;;;;13.37;4.57;;;;;;;8.19;nan;-24045.81;5034160;28;20209;-77
2022/12/10 06:09:32;;;;;;;15.10;4.87;;;;;;;7.97;nan;-24039.59;5034406;28;20553;-76
2022/12/10 06:11:57;;;;;;;14.87;5.20;;;;;;;8.08;nan;-24042.56;5032782;28;20186;-77
2022/12/10 06:14:23;;;;;;;12.23;5.47;;;;;;;8.04;nan;-24041.44;5032829;28;20229;-77
2022/12/10 06:16:48;;;;;;;11.23;4.77;;;;;;;8.14;nan;-24044.41;5034010;28;20175;-76
2022/12/10 06:19:13;;;;;;;14.53;5.13;;;;;;;8.07;nan;-24042.28;5034002;28;20179;-77
2022/12/10 06:21:39;;;;;;;11.07;4.80;;;;;;;8.10;nan;-24043.13;5033770;28;20183;-74
2022/12/10 06:24:05;;;;;;;8.00;4.90;;;;;;;7.97;nan;-24039.72;5032454;28;20195;-75
2022/12/10 06:26:30;;;;;;;16.57;5.43;;;;;;;8.15;nan;-24044.56;5033500;28;20282;-76
2022/12/10 06:28:55;;;;;;;8.87;4.73;;;;;;;7.85;nan;-24036.34;5033830;28;20607;-77
2022/12/10 06:31:21;;;;;;;12.38;4.38;;;;;;;8.13;nan;-24044.13;5033295;28;20225;-78
2022/12/10 06:33:47;;;;;;;8.52;4.65;;;;;;;8.10;nan;-24043.28;5031582;28;20322;-77
2022/12/10 06:36:14;;;;;;;10.27;4.20;;;;;;;8.26;nan;-24047.66;5033680;28;20187;-79
2022/12/10 06:38:40;;;;;;;9.33;5.30;;;;;;;8.36;nan;-24050.50;5031378;28;20206;-77
2022/12/10 06:41:08;;;;;;;9.37;4.80;;;;;;;8.19;nan;-24045.69;5033315;28;20218;-78
2022/12/10 06:43:34;;;;;;;10.80;6.17;;;;;;;8.48;nan;-24053.75;5031447;28;20184;-78
2022/12/10 06:46:07;;;;;;;5.73;4.17;;;;;;;8.54;nan;-24055.59;5031504;28;20264;-79
2022/12/10 06:48:33;;;;;;;17.70;5.65;;;;;;;8.45;nan;-24052.91;5031814;28;20202;-78
2022/12/10 06:50:58;;;;;;;12.07;4.38;;;;;;;8.66;nan;-24059.00;5031479;28;20286;-76
2022/12/10 06:53:24;;;;;;;9.77;4.38;;;;;;;8.65;nan;-24058.56;5033751;28;20263;-76
2022/12/10 06:55:49;;;;;;;11.50;5.03;;;;;;;8.55;nan;-24055.88;5033417;28;20183;-76
2022/12/10 06:58:14;;;;;;;14.18;5.93;;;;;;;8.72;nan;-24060.56;5032915;28;20229;-76
2022/12/10 07:00:40;;;;;;;16.75;5.25;;;;;;;8.74;nan;-24061.13;5031579;28;20198;-74
2022/12/10 07:03:05;;;;;;;12.95;4.57;;;;;;;8.79;nan;-24062.53;5033417;28;20647;-78
2022/12/10 07:05:30;;;;;;;5.43;3.88;;;;;;;8.74;nan;-24061.13;5031776;28;20183;-77
2022/12/10 07:07:56;;;;;;;8.38;4.68;;;;;;;8.31;nan;-24049.22;5033352;28;20214;-76
2022/12/10 07:10:22;;;;;;;8.63;4.28;;;;;;;8.43;nan;-24052.63;5032905;28;20179;-76
2022/12/10 07:12:47;;;;;;;10.75;5.05;;;;;;;8.65;nan;-24058.72;5033026;28;20206;-77
2022/12/10 07:15:13;;;;;;;12.95;4.72;;;;;;;8.79;nan;-24062.53;5032053;28;20563;-76
2022/12/10 07:17:38;;;;;;;9.15;3.95;;;;;;;9.09;nan;-24071.03;5031385;28;20352;-76
2022/12/10 07:20:04;;;;;;;9.50;4.88;;;;;;;9.18;nan;-24073.56;5031345;28;20187;-77
2022/12/10 07:22:30;;;;;;;8.38;4.30;;;;;;;9.48;nan;-24081.91;5031296;28;20179;-76
2022/12/10 07:24:55;;;;;;;14.93;5.60;;;;;;;9.38;nan;-24079.06;5034770;28;20186;-76
2022/12/10 07:27:20;;;;;;;8.20;4.50;;;;;;;9.28;nan;-24076.38;5031076;28;20207;-76
2022/12/10 07:29:46;;;;;;;6.30;4.38;;;;;;;9.37;nan;-24078.66;5030842;28;20237;-76
2022/12/10 07:32:11;;;;;;;6.88;3.88;;;;;;;9.38;nan;-24078.94;5032349;28;20258;-74
2022/12/10 07:34:37;;;;;;;9.02;4.95;;;;;;;9.86;nan;-24092.50;5032351;28;20674;-76
2022/12/10 07:37:02;;;;;;;9.88;4.43;;;;;;;9.64;nan;-24086.44;5030717;28;20253;-75
2022/12/10 07:39:28;;;;;;;11.45;4.20;;;;;;;9.78;nan;-24090.25;5030368;28;20187;-75
2022/12/10 07:41:53;;;;;;;6.75;4.13;;;;;;;9.79;nan;-24090.38;5032270;28;20631;-75
2022/12/10 07:44:21;;;;;;;7.95;4.85;;;;;;;9.77;nan;-24090.09;5032003;28;20584;-76
2022/12/10 07:46:47;;;;;;;9.50;4.22;;;;;;;9.31;nan;-24077.09;5032322;28;20282;-76
2022/12/10 07:49:13;;;;;;;11.30;4.80;;;;;;;9.20;nan;-24074.00;5030527;28;20620;-74
2022/12/10 07:51:39;;;;;;;11.68;4.90;;;;;;;9.13;nan;-24072.16;5030738;28;20217;-75
2022/12/10 07:54:04;;;;;;;5.88;3.85;;;;;;;9.18;nan;-24073.41;5032109;28;20179;-76
2022/12/10 07:56:30;;;;;;;14.73;4.65;;;;;;;9.42;nan;-24080.22;5030614;28;20708;-76
2022/12/10 07:58:55;;;;;;;9.75;4.47;;;;;;;9.26;nan;-24075.81;5030468;28;20183;-75
2022/12/10 08:01:23;;;;;;;8.35;5.05;;;;;;;9.50;nan;-24082.31;5031943;28;20179;-76
2022/12/10 08:03:49;;;;;;;12.73;5.40;;;;;;;9.36;nan;-24078.38;5031568;28;20243;-75
2022/12/10 08:06:18;;;;;;;9.32;5.22;;;;;;;9.43;nan;-24080.34;5031843;28;20198;-76
2022/12/10 08:08:44;;;;;;;16.00;4.40;;;;;;;9.40;nan;-24079.63;5031193;28;20179;-75
2022/12/10 08:11:11;;;;;;;20.73;4.80;;;;;;;9.27;nan;-24075.97;5030323;28;20266;-75
2022/12/10 08:13:37;;;;;;;7.85;3.75;;;;;;;9.47;nan;-24081.47;5034166;28;20269;-75
2022/12/10 08:16:14;;;;;;;8.55;5.57;;;;;;;9.17;nan;-24073.13;5029998;28;20725;-74
2022/12/10 08:18:40;;;;;;;8.80;4.45;;;;;;;9.30;nan;-24076.81;5031744;28;20209;-74
2022/12/10 08:21:14;;;;;;;18.48;5.32;;;;;;;9.48;nan;-24081.75;5032034;28;20178;-75
2022/12/10 08:23:40;;;;;;;10.13;4.95;;;;;;;9.44;nan;-24080.63;5031294;28;20191;-76
2022/12/10 08:26:15;;;;;;;10.55;4.32;;;;;;;9.30;nan;-24076.81;5029998;28;20167;-75
2022/12/10 08:28:41;;;;;;;8.60;4.70;;;;;;;9.08;nan;-24070.72;5031740;28;20335;-75
2022/12/10 08:31:09;;;;;;;7.65;4.25;;;;;;;9.35;nan;-24078.09;5031529;28;20700;-75
2022/12/10 08:33:36;;;;;;;9.32;5.15;;;;;;;9.51;nan;-24082.75;5031628;28;20183;-76
2022/12/10 08:36:02;;;;;;;9.25;4.35;;;;;;;9.42;nan;-24080.22;5049382;28;20167;-76
2022/12/10 08:38:29;;;;;;;9.98;4.90;;;;;;;9.72;nan;-24088.53;5048795;28;20183;-76
2022/12/10 08:40:54;;;;;;;9.57;5.82;;;;;;;9.86;nan;-24092.50;5031831;28;20662;-76
2022/12/10 08:43:20;;;;;;;11.38;5.07;;;;;;;9.93;nan;-24094.34;5031629;28;20171;-76
2022/12/10 08:45:45;;;;;;;11.50;5.97;;;;;;;10.03;nan;-24097.31;5031224;28;20280;-75
2022/12/10 08:48:11;;;;;;;7.72;4.85;;;;;;;10.08;nan;-24098.56;5031283;28;20203;-75
2022/12/10 08:50:38;;;;;;;8.93;5.35;;;;;;;10.01;nan;-24096.59;5032537;28;20702;-76
2022/12/10 08:53:03;;;;;;;8.65;4.93;;;;;;;9.92;nan;-24094.06;5035288;28;20172;-76
2022/12/10 08:55:29;;;;;;;10.10;5.10;;;;;;;10.37;nan;-24106.63;5035937;28;20554;-74
2022/12/10 08:57:56;;;;;;;10.32;6.07;;;;;;;10.52;nan;-24111.00;5035253;28;20183;-75
2022/12/10 09:00:21;;;;;;;9.82;5.35;;;;;;;10.48;nan;-24109.72;5034442;28;20175;-75
2022/12/10 09:02:47;;;;;;;8.25;5.32;;;;;;;10.83;nan;-24119.59;5034544;28;20654;-75
2022/12/10 09:05:13;;;;;;;9.13;5.45;;;;;;;10.51;nan;-24110.56;5033663;28;20327;-75
2022/12/10 09:07:39;;;;;;;13.43;5.65;;;;;;;10.68;nan;-24115.22;5033189;28;20203;-75
2022/12/10 09:10:06;;;;;;;11.13;4.90;;;;;;;11.07;nan;-24126.38;5034865;28;20175;-74
2022/12/10 09:12:33;;;;;;;8.10;3.85;;;;;;;10.95;nan;-24122.84;5033627;28;20187;-75
2022/12/10 09:15:03;;;;;;;6.00;4.00;;;;;;;10.97;nan;-24123.41;5034965;28;20254;-76
2022/12/10 09:17:30;;;;;;;9.30;4.65;;;;;;;10.99;nan;-24124.13;5034746;28;20264;-75
2022/12/10 09:19:57;;;;;;;10.60;5.22;;;;;;;10.82;nan;-24119.31;5034216;28;20172;-75
2022/12/10 09:22:23;;;;;;;7.65;4.10;;;;;;;10.93;nan;-24122.28;5034056;28;20565;-74
2022/12/10 09:24:49;;;;;;;10.65;4.95;;;;;;;10.77;nan;-24117.78;5033397;28;20187;-76
2022/12/10 09:27:16;;;;;;;9.10;5.53;;;;;;;11.14;nan;-24128.19;5040314;28;20249;-76
2022/12/10 09:29:42;;;;;;;8.00;4.25;;;;;;;11.04;nan;-24125.38;5032718;28;20639;-75
2022/12/10 09:32:08;;;;;;;13.77;5.03;;;;;;;11.14;nan;-24128.06;5033383;28;20187;-75
2022/12/10 09:34:33;;;;;;;10.63;4.10;;;;;;;11.79;nan;-24146.25;5033697;28;20274;-75
2022/12/10 09:36:59;;;;;;;9.27;4.63;;;;;;;11.90;nan;-24149.34;5034578;28;20160;-74
2022/12/10 09:39:25;;;;;;;11.65;5.10;;;;;;;11.66;nan;-24142.72;5034417;28;20210;-75
2022/12/10 09:42:34;;;;;;;10.60;4.78;;;;;;;11.58;nan;-24140.47;5032854;28;20191;-75
2022/12/10 09:45:16;;;;;;;8.70;4.07;;;;;;;11.73;nan;-24144.69;5033940;28;20593;-75
2022/12/10 09:48:05;;;;;;;7.82;4.50;;;;;;;11.76;nan;-24145.41;5034242;28;20195;-76
2022/12/10 09:50:51;;;;;;;9.50;4.70;;;;;;;11.95;nan;-24150.88;5026971;28;20180;-75
2022/12/10 09:53:20;;;;;;;8.48;4.35;;;;;;;11.55;nan;-24139.47;5036099;28;20183;-75
2022/12/10 09:55:48;;;;;;;12.90;4.93;;;;;;;11.62;nan;-24141.44;5034756;28;20237;-77
2022/12/10 09:58:21;;;;;;;10.90;5.03;;;;;;;11.75;nan;-24145.25;5033578;28;20266;-74
2022/12/10 10:00:52;;;;;;;10.65;4.85;;;;;;;11.26;nan;-24131.59;5033953;28;20156;-75
2022/12/10 10:03:18;;;;;;;7.72;4.30;;;;;;;10.61;nan;-24113.41;5032374;28;20745;-75
2022/12/10 10:05:53;;;;;;;7.82;4.63;;;;;;;10.62;nan;-24113.69;5033728;28;20254;-76
2022/12/10 10:08:28;;;;;;;11.45;5.10;;;;;;;10.87;nan;-24120.59;5033602;28;20210;-75
2022/12/10 10:10:54;;;;;;;8.40;5.03;;;;;;;11.43;nan;-24136.22;5034022;28;20618;-76
2022/12/10 10:13:35;;;;;;;9.00;4.63;;;;;;;11.40;nan;-24135.38;5033979;28;20175;-75
2022/12/10 10:16:17;;;;;;;8.82;4.47;;;;;;;11.63;nan;-24141.88;5033247;28;20167;-75
2022/12/10 10:18:52;;;;;;;6.47;3.38;;;;;;;11.82;nan;-24147.09;5033301;28;20606;-76
2022/12/10 10:21:25;;;;;;;9.80;4.43;;;;;;;11.51;nan;-24138.50;5032101;28;20171;-75
2022/12/10 10:23:51;;;;;;;10.90;4.85;;;;;;;11.56;nan;-24139.75;5032288;28;20168;-75
2022/12/10 10:26:16;;;;;;;7.47;4.35;;;;;;;11.17;nan;-24128.91;5033088;28;20557;-75
2022/12/10 10:28:43;;;;;;;13.20;5.38;;;;;;;11.00;nan;-24124.25;5033625;28;20167;-76
2022/12/10 10:31:39;;;;;;;9.40;5.30;;;;;;;11.22;nan;-24130.31;5033624;28;20671;-75
2022/12/10 10:34:13;;;;;;;10.05;4.65;;;;;;;11.41;nan;-24135.81;5023778;28;20180;-76
2022/12/10 10:36:39;;;;;;;8.52;4.63;;;;;;;11.04;nan;-24125.38;5032087;28;20175;-76
2022/12/10 10:39:32;;;;;;;9.90;4.93;;;;;;;11.33;nan;-24133.56;5033508;28;20172;-75
2022/12/10 10:41:59;;;;;;;11.77;4.95;;;;;;;11.52;nan;-24138.78;5030593;28;20249;-76
2022/12/10 10:44:28;;;;;;;12.30;5.25;;;;;;;10.82;nan;-24119.19;5031961;28;20172;-76
2022/12/10 10:46:55;;;;;;;13.10;5.15;;;;;;;10.97;nan;-24123.53;5033115;28;20214;-76
2022/12/10 10:49:28;;;;;;;9.57;5.03;;;;;;;11.14;nan;-24128.19;5031927;28;20175;-76
2022/12/10 10:52:00;;;;;;;9.25;5.22;;;;;;;11.11;nan;-24127.34;5033281;28;20174;-76
2022/12/10 10:54:36;;;;;;;11.73;4.50;;;;;;;11.14;nan;-24128.19;5033715;28;20187;-79
2022/12/10 10:57:05;;;;;;;10.50;5.78;;;;;;;11.31;nan;-24132.84;5031433;28;20179;-76
2022/12/10 10:59:36;;;;;;;7.78;4.15;;;;;;;11.36;nan;-24134.41;5032661;28;20258;-76
2022/12/10 11:02:13;;;;;;;8.65;4.95;;;;;;;11.46;nan;-24137.22;5031313;28;20227;-76
2022/12/10 11:04:47;;;;;;;10.00;5.10;;;;;;;11.43;nan;-24136.22;5032535;28;20175;-76
2022/12/10 11:07:21;;;;;;;11.98;4.97;;;;;;;11.29;nan;-24132.28;5032800;28;20195;-76
2022/12/10 11:09:48;;;;;;;7.05;4.25;;;;;;;11.33;nan;-24133.56;5032269;28;20175;-76
2022/12/10 11:12:28;;;;;;;10.05;4.80;;;;;;;10.94;nan;-24122.56;5031595;28;20822;-76
2022/12/10 11:14:53;;;;;;;11.43;4.38;;;;;;;10.96;nan;-24123.13;5031318;28;20167;-76
2022/12/10 11:17:21;;;;;;;9.50;5.63;;;;;;;10.95;nan;-24122.84;5032269;28;20223;-76
2022/12/10 11:19:53;;;;;;;9.73;5.65;;;;;;;11.03;nan;-24125.25;5031008;28;20187;-74
2022/12/10 11:22:27;;;;;;;11.05;5.63;;;;;;;11.02;nan;-24124.97;5032385;28;20689;-75
2022/12/10 11:24:54;;;;;;;9.65;5.38;;;;;;;10.80;nan;-24118.63;5032755;28;20173;-77
2022/12/10 11:27:46;;;;;;;16.55;8.20;;;;;;;11.30;nan;-24132.72;5032934;28;20500;-77
2022/12/10 11:30:21;;;;;;;7.85;4.53;;;;;;;11.12;nan;-24127.50;5032389;28;20203;-78
2022/12/10 11:33:18;;;;;;;68.00;17.25;;;;;;;11.49;nan;-24138.06;5032454;28;20293;-76
2022/12/10 11:36:13;;;;;;;19.55;6.85;;;;;;;11.68;nan;-24143.28;5032665;28;20380;-75
2022/12/10 11:39:08;;;;;;;11.68;5.15;;;;;;;11.69;nan;-24143.56;5032267;28;20171;-80
2022/12/10 11:41:57;;;;;;;11.85;5.68;;;;;;;11.86;nan;-24148.22;5032369;28;20163;-76
2022/12/10 11:44:37;;;;;;;13.10;6.68;;;;;;;11.97;nan;-24151.16;5032472;28;20241;-76
2022/12/10 11:47:12;;;;;;;11.25;4.93;;;;;;;12.12;nan;-24155.38;5031965;28;20281;-76
2022/12/10 11:50:00;;;;;;;19.35;6.10;;;;;;;12.26;nan;-24159.47;5032305;28;20167;-75
2022/12/10 11:52:34;;;;;;;11.57;6.10;;;;;;;12.12;nan;-24155.38;5031954;28;20198;-76
2022/12/10 11:55:31;;;;;;;10.38;4.80;;;;;;;12.11;nan;-24155.13;5031639;28;20165;-77
2022/12/10 11:58:19;;;;;;;9.02;5.63;;;;;;;12.29;nan;-24160.31;5032120;28;20168;-76
2022/12/10 12:01:06;;;;;;;18.55;5.05;;;;;;;11.99;nan;-24151.72;5031572;28;20823;-75